Time;durP1;ratioP1;P1;durP2;ratioP2;P2;SDS_P1;SDS_P2;PMS_P1;PMS_P2;Temp;Humidity;BMP_temperature;BMP_pressure;BME280_temperature;BME280_humidity;BME280_pressure;Samples;Min_cycle;Max_cycle;Signal;HPM_P1;HPM_P2
2021/01/03 00:00:22;;;;;;;90.35;39.63;;;;;;;4.63;100.00;101558.81;5036330;28;20043;-73
2021/01/03 00:02:48;;;;;;;54.55;22.13;;;;;;;4.71;100.00;101566.81;5035884;28;20033;-74
2021/01/03 00:05:17;;;;;;;33.72;14.68;;;;;;;4.46;100.00;101569.16;5035531;28;20132;-75
2021/01/03 00:07:42;;;;;;;40.33;17.35;;;;;;;4.60;100.00;101570.50;5053828;28;20096;-74
2021/01/03 00:10:09;;;;;;;34.35;15.68;;;;;;;4.62;100.00;101571.16;5049481;28;20430;-74
2021/01/03 00:12:34;;;;;;;53.75;22.00;;;;;;;4.56;100.00;101567.31;5056129;28;20035;-75
2021/01/03 00:15:00;;;;;;;65.32;31.27;;;;;;;4.83;100.00;101568.28;5056970;28;20037;-75
2021/01/03 00:17:25;;;;;;;37.20;17.58;;;;;;;4.86;100.00;101565.34;5035882;28;20025;-75
2021/01/03 00:19:51;;;;;;;33.17;14.13;;;;;;;4.68;100.00;101561.84;5050885;28;20119;-75
2021/01/03 00:22:16;;;;;;;70.88;36.97;;;;;;;4.98;100.00;101561.53;5073218;28;20107;-75
2021/01/03 00:24:41;;;;;;;43.75;24.33;;;;;;;4.87;100.00;101556.50;5055969;28;20097;-75
2021/01/03 00:27:08;;;;;;;43.38;19.52;;;;;;;4.90;100.00;101556.19;5055891;28;20038;-75
2021/01/03 00:29:33;;;;;;;48.58;23.23;;;;;;;4.96;100.00;101554.75;5031550;28;20068;-75
2021/01/03 00:32:00;;;;;;;43.47;22.65;;;;;;;4.94;100.00;101554.09;5013862;28;20065;-73
2021/01/03 00:34:26;;;;;;;37.42;14.98;;;;;;;4.99;100.00;101555.31;5016053;28;20040;-74
2021/01/03 00:36:52;;;;;;;28.05;11.63;;;;;;;4.91;100.00;101554.41;5033522;28;20029;-75
2021/01/03 00:39:18;;;;;;;28.50;11.50;;;;;;;4.87;100.00;101545.97;5016076;28;20489;-75
2021/01/03 00:41:51;;;;;;;29.45;11.30;;;;;;;4.90;100.00;101534.28;5050546;28;20029;-75
2021/01/03 00:44:17;;;;;;;55.83;20.48;;;;;;;4.85;100.00;101541.81;5051932;28;20493;-76
2021/01/03 00:46:43;;;;;;;67.68;27.85;;;;;;;4.77;100.00;101539.91;5049385;28;20029;-75
2021/01/03 00:49:08;;;;;;;137.73;54.08;;;;;;;4.87;100.00;101537.22;5047135;28;20034;-75
2021/01/03 00:51:34;;;;;;;63.47;25.38;;;;;;;4.89;100.00;101536.09;5029266;28;20037;-74
2021/01/03 00:54:00;;;;;;;79.53;32.15;;;;;;;4.86;100.00;101527.69;5031482;28;20021;-74
2021/01/03 00:56:26;;;;;;;37.47;17.55;;;;;;;4.81;100.00;101526.31;5035364;28;20029;-75
2021/01/03 00:58:52;;;;;;;84.10;30.88;;;;;;;4.79;100.00;101537.97;5052789;28;20044;-75
2021/01/03 01:01:18;;;;;;;36.83;14.13;;;;;;;4.86;100.00;101541.66;5055353;28;20514;-75
2021/01/03 01:03:43;;;;;;;43.10;12.80;;;;;;;4.75;100.00;101532.19;5036989;28;20059;-75
2021/01/03 01:06:09;;;;;;;37.97;12.60;;;;;;;4.72;100.00;101539.53;5053140;28;20465;-75
2021/01/03 01:08:35;;;;;;;31.45;11.05;;;;;;;4.78;100.00;101536.28;5035024;28;20064;-75
2021/01/03 01:11:03;;;;;;;28.10;10.63;;;;;;;4.75;100.00;101541.84;5035598;28;20393;-75
2021/01/03 01:13:28;;;;;;;27.60;10.27;;;;;;;4.73;100.00;101536.75;5028578;28;20463;-75
2021/01/03 01:15:54;;;;;;;32.40;10.65;;;;;;;4.63;100.00;101541.25;5051879;28;20033;-74
2021/01/03 01:18:19;;;;;;;30.65;10.77;;;;;;;4.55;100.00;101538.53;5055961;28;20048;-74
2021/01/03 01:20:45;;;;;;;33.05;10.90;;;;;;;4.54;100.00;101532.44;5038647;28;20468;-75
2021/01/03 01:23:10;;;;;;;25.42;8.52;;;;;;;4.50;100.00;101538.94;5037702;28;20021;-75
2021/01/03 01:25:36;;;;;;;20.45;7.18;;;;;;;4.60;100.00;101544.19;5055967;28;20102;-74
2021/01/03 01:28:01;;;;;;;22.13;8.05;;;;;;;4.58;100.00;101532.97;5038762;28;20024;-75
2021/01/03 01:30:29;;;;;;;24.75;8.15;;;;;;;4.58;100.00;101527.72;5038479;28;20033;-74
2021/01/03 01:32:55;;;;;;;17.85;7.88;;;;;;;4.49;100.00;101525.94;5040552;28;20461;-74
2021/01/03 01:35:27;;;;;;;18.85;6.90;;;;;;;4.29;100.00;101525.19;5064473;28;20038;-74
2021/01/03 01:37:53;;;;;;;23.70;10.93;;;;;;;4.27;100.00;101517.47;5044154;28;20048;-74
2021/01/03 01:40:22;;;;;;;21.73;9.73;;;;;;;4.16;100.00;101512.38;5066103;28;20521;-75
2021/01/03 01:42:47;;;;;;;22.85;10.93;;;;;;;4.02;100.00;101510.22;5047030;28;20081;-75
2021/01/03 01:45:16;;;;;;;28.27;12.70;;;;;;;3.64;100.00;101501.47;5048628;28;20028;-74
2021/01/03 01:47:46;;;;;;;24.40;11.50;;;;;;;3.44;100.00;101498.88;5071081;28;20086;-74
2021/01/03 01:50:19;;;;;;;29.65;12.57;;;;;;;3.25;100.00;101493.66;5058782;28;20446;-74
2021/01/03 01:52:52;;;;;;;38.13;14.18;;;;;;;3.30;100.00;101491.44;5058789;28;20024;-74
2021/01/03 01:55:26;;;;;;;27.80;12.45;;;;;;;3.72;100.00;101482.38;5058771;28;20024;-75
2021/01/03 01:58:03;;;;;;;29.63;12.23;;;;;;;3.74;100.00;101486.50;5040626;28;20114;-74
2021/01/03 02:00:32;;;;;;;29.80;15.13;;;;;;;3.80;100.00;101485.94;5038508;28;20131;-73
2021/01/03 02:03:16;;;;;;;28.30;13.60;;;;;;;3.80;100.00;101483.31;5033251;28;20473;-73
2021/01/03 02:06:18;;;;;;;31.48;11.05;;;;;;;3.73;100.00;101484.03;5056266;28;20033;-75
2021/01/03 02:09:12;;;;;;;54.35;23.05;;;;;;;3.82;100.00;101476.13;5002437;28;20119;-74
2021/01/03 02:11:38;;;;;;;26.55;12.48;;;;;;;3.72;100.00;101467.41;5011437;28;20128;-76
2021/01/03 02:14:06;;;;;;;38.38;18.55;;;;;;;3.72;100.00;101466.59;5039636;28;20123;-75
2021/01/03 02:16:35;;;;;;;38.35;16.00;;;;;;;3.58;100.00;101458.22;5038430;28;20452;-75
2021/01/03 02:19:02;;;;;;;29.73;10.85;;;;;;;3.61;100.00;101451.84;5018632;28;20446;-76
2021/01/03 02:21:46;;;;;;;27.02;10.90;;;;;;;3.78;100.00;101453.75;5018398;28;20032;-75
2021/01/03 02:24:18;;;;;;;25.83;11.93;;;;;;;3.95;100.00;101446.88;5049474;28;20090;-75
2021/01/03 02:26:50;;;;;;;30.27;11.13;;;;;;;4.15;100.00;101446.81;5037583;28;20051;-75
2021/01/03 02:29:19;;;;;;;26.35;10.35;;;;;;;4.32;100.00;101448.63;5055356;28;20060;-74
2021/01/03 02:31:52;;;;;;;34.78;10.30;;;;;;;4.35;100.00;101428.13;5070902;28;20067;-75
2021/01/03 02:34:29;;;;;;;32.35;10.88;;;;;;;4.37;100.00;101435.88;5058032;28;20086;-74
2021/01/03 02:37:01;;;;;;;26.10;10.07;;;;;;;4.50;100.00;101425.81;5058052;28;20445;-73
2021/01/03 02:39:42;;;;;;;23.15;10.75;;;;;;;4.54;100.00;101427.19;5075483;28;20103;-74
2021/01/03 02:42:15;;;;;;;24.20;10.65;;;;;;;4.66;100.00;101419.06;5034371;28;20040;-74
2021/01/03 02:44:40;;;;;;;25.98;9.63;;;;;;;4.70;100.00;101417.81;5052018;28;20032;-74
2021/01/03 02:47:06;;;;;;;22.35;11.10;;;;;;;4.69;100.00;101419.63;5057707;28;20123;-74
2021/01/03 02:49:32;;;;;;;25.92;10.50;;;;;;;4.59;100.00;101413.56;5074837;28;20024;-75
2021/01/03 02:52:01;;;;;;;22.15;11.65;;;;;;;4.51;100.00;101413.53;5037775;28;20025;-73
2021/01/03 02:54:27;;;;;;;30.55;13.95;;;;;;;4.54;100.00;101413.22;5055441;28;20039;-74
2021/01/03 02:56:52;;;;;;;23.45;11.45;;;;;;;4.58;100.00;101418.03;5037440;28;20040;-75
2021/01/03 02:59:17;;;;;;;27.42;11.88;;;;;;;4.55;100.00;101415.69;5046076;28;20119;-75
2021/01/03 03:01:43;;;;;;;22.83;9.43;;;;;;;4.69;100.00;101408.25;5036909;28;20045;-74
2021/01/03 03:04:08;;;;;;;24.40;11.05;;;;;;;4.59;100.00;101410.94;5035279;28;20029;-75
2021/01/03 03:06:34;;;;;;;23.63;10.98;;;;;;;4.62;100.00;101413.28;5048996;28;20033;-74
2021/01/03 03:08:59;;;;;;;21.38;9.43;;;;;;;4.67;100.00;101403.13;5036896;28;20108;-74
2021/01/03 03:11:24;;;;;;;32.55;11.15;;;;;;;4.68;100.00;101403.97;5048065;28;20371;-74
2021/01/03 03:13:50;;;;;;;29.77;13.75;;;;;;;4.63;100.00;101399.16;5036619;28;20024;-74
2021/01/03 03:16:17;;;;;;;38.20;17.95;;;;;;;4.86;100.00;101404.78;5036709;28;20516;-74
2021/01/03 03:18:43;;;;;;;25.30;12.57;;;;;;;4.93;100.00;101397.94;5036457;28;20059;-75
2021/01/03 03:21:08;;;;;;;26.60;11.70;;;;;;;5.12;100.00;101404.00;5036586;28;20059;-75
2021/01/03 03:23:33;;;;;;;26.10;12.07;;;;;;;5.14;100.00;101402.84;5036420;28;20017;-75
2021/01/03 03:25:59;;;;;;;22.92;11.45;;;;;;;5.05;100.00;101396.72;5036656;28;20192;-74
2021/01/03 03:28:24;;;;;;;26.88;10.30;;;;;;;5.25;100.00;101399.16;5036298;28;20032;-74
2021/01/03 03:30:49;;;;;;;19.45;10.68;;;;;;;5.35;100.00;101391.97;5039620;28;20025;-73
2021/01/03 03:33:15;;;;;;;25.10;11.63;;;;;;;5.32;100.00;101396.72;5056122;28;20453;-74
2021/01/03 03:35:40;;;;;;;21.08;9.60;;;;;;;5.36;100.00;101396.28;5054274;28;20024;-74
2021/01/03 03:38:07;;;;;;;26.27;11.55;;;;;;;5.49;100.00;101395.84;5054352;28;20024;-74
2021/01/03 03:40:33;;;;;;;20.70;9.85;;;;;;;5.56;100.00;101393.41;5054167;28;20099;-74
2021/01/03 03:42:59;;;;;;;18.83;8.73;;;;;;;5.55;100.00;101384.69;5052136;28;20129;-75
2021/01/03 03:45:25;;;;;;;25.75;9.77;;;;;;;5.61;100.00;101389.31;5053781;28;20025;-74
2021/01/03 03:47:50;;;;;;;20.23;9.52;;;;;;;5.69;100.00;101386.75;5036254;28;20029;-75
2021/01/03 03:50:20;;;;;;;16.70;8.77;;;;;;;5.79;100.00;101383.97;5036127;28;20074;-75
2021/01/03 03:52:45;;;;;;;19.05;8.85;;;;;;;5.87;100.00;101383.16;5050701;28;20028;-74
2021/01/03 03:55:12;;;;;;;22.00;9.55;;;;;;;6.01;100.00;101381.78;5039771;28;20025;-74
2021/01/03 03:57:38;;;;;;;20.02;7.68;;;;;;;6.00;100.00;101391.50;5053001;28;20499;-75
2021/01/03 04:00:09;;;;;;;19.50;8.43;;;;;;;6.07;99.96;101376.69;5039606;28;20112;-75
2021/01/03 04:02:35;;;;;;;16.97;8.87;;;;;;;6.01;99.95;101385.25;5035864;28;20029;-75
2021/01/03 04:05:00;;;;;;;19.15;8.95;;;;;;;6.04;100.00;101373.56;5001686;28;20732;-74
2021/01/03 04:07:25;;;;;;;18.67;8.40;;;;;;;6.07;99.68;101378.50;5026868;28;20021;-75
2021/01/03 04:09:51;;;;;;;19.17;8.90;;;;;;;6.06;99.43;101382.97;5032115;28;20038;-75
2021/01/03 04:12:16;;;;;;;19.23;7.82;;;;;;;6.10;99.33;101383.47;5049805;28;20040;-75
2021/01/03 04:14:42;;;;;;;18.70;8.90;;;;;;;6.08;99.29;101380.16;5035350;28;20064;-74
2021/01/03 04:17:08;;;;;;;18.52;7.85;;;;;;;6.02;99.72;101378.16;5038054;28;20111;-74
2021/01/03 04:19:33;;;;;;;16.20;7.50;;;;;;;6.18;98.18;101389.59;5038716;28;20025;-75
2021/01/03 04:22:02;;;;;;;18.20;7.80;;;;;;;6.12;98.88;101384.97;5039540;28;20028;-74
2021/01/03 04:24:29;;;;;;;20.25;7.63;;;;;;;6.14;98.50;101383.00;5036075;28;20049;-75
2021/01/03 04:26:58;;;;;;;21.20;8.82;;;;;;;6.17;98.40;101382.69;5034841;28;20064;-75
2021/01/03 04:29:24;;;;;;;19.17;9.50;;;;;;;6.27;97.50;101381.72;5035630;28;20044;-74
2021/01/03 04:32:12;;;;;;;15.18;7.43;;;;;;;6.27;97.65;101384.34;5053772;28;20500;-74
2021/01/03 04:34:38;;;;;;;17.35;7.70;;;;;;;6.35;97.22;101387.81;5053729;28;20060;-74
2021/01/03 04:37:05;;;;;;;18.38;7.38;;;;;;;6.45;96.81;101398.25;5053105;28;20535;-75
2021/01/03 04:39:31;;;;;;;17.23;6.88;;;;;;;6.36;96.83;101402.66;5066624;28;20033;-74
2021/01/03 04:42:02;;;;;;;16.42;6.53;;;;;;;6.27;97.24;101392.25;5070344;28;20020;-74
2021/01/03 04:44:52;;;;;;;15.50;7.25;;;;;;;6.36;96.54;101397.38;5073294;28;20032;-74
2021/01/03 04:47:28;;;;;;;20.15;8.80;;;;;;;6.26;97.31;101403.78;5055673;28;20127;-75
2021/01/03 04:50:17;;;;;;;20.63;9.23;;;;;;;6.24;97.42;101398.69;5070385;28;20040;-75
2021/01/03 04:52:45;;;;;;;21.20;7.60;;;;;;;6.27;97.60;101385.16;5061237;28;20029;-75
2021/01/03 04:55:27;;;;;;;18.55;7.97;;;;;;;6.48;96.28;101397.09;5041921;28;20086;-75
2021/01/03 04:58:14;;;;;;;18.95;6.95;;;;;;;6.28;97.13;101388.63;5040623;28;20076;-74
2021/01/03 05:01:11;;;;;;;21.05;7.22;;;;;;;6.37;96.70;101391.13;5027204;28;20040;-74
2021/01/03 05:03:51;;;;;;;20.17;8.25;;;;;;;6.41;96.48;101397.75;5033368;28;20060;-75
2021/01/03 05:06:24;;;;;;;19.17;8.57;;;;;;;6.24;97.21;101403.13;5031587;28;20044;-75
2021/01/03 05:08:56;;;;;;;13.43;7.68;;;;;;;6.38;96.94;101398.06;5043496;28;20020;-75
2021/01/03 05:11:30;;;;;;;17.10;8.13;;;;;;;6.38;97.11;101400.72;5034658;28;20033;-74
2021/01/03 05:14:24;;;;;;;18.52;9.63;;;;;;;6.32;97.35;101395.22;5035268;28;20381;-76
2021/01/03 05:16:54;;;;;;;13.85;6.53;;;;;;;6.43;96.92;101394.94;5047841;28;20124;-74
2021/01/03 05:19:20;;;;;;;19.48;7.40;;;;;;;6.38;97.44;101389.31;5034155;28;20061;-74
2021/01/03 05:21:49;;;;;;;17.83;7.38;;;;;;;6.38;97.74;101397.22;5035368;28;20025;-74
2021/01/03 05:24:14;;;;;;;15.57;5.90;;;;;;;6.43;97.60;101390.47;5026393;28;20051;-74
2021/01/03 05:26:41;;;;;;;17.75;8.65;;;;;;;6.42;97.13;101396.75;5030212;28;20025;-75
2021/01/03 05:29:10;;;;;;;20.85;8.18;;;;;;;6.47;97.44;101398.88;5027097;28;20098;-75
2021/01/03 05:31:36;;;;;;;17.38;7.38;;;;;;;6.54;96.99;101399.09;5024504;28;20021;-74
2021/01/03 05:34:08;;;;;;;17.23;6.85;;;;;;;6.48;96.98;101399.72;5025040;28;20028;-73
2021/01/03 05:36:44;;;;;;;15.75;6.80;;;;;;;6.59;96.58;101399.41;5025539;28;20025;-74
2021/01/03 05:39:21;;;;;;;18.98;5.93;;;;;;;6.62;96.44;101409.63;5025977;28;20123;-73
2021/01/03 05:41:47;;;;;;;17.63;6.30;;;;;;;6.64;96.16;101407.66;5015581;28;20030;-74
2021/01/03 05:44:34;;;;;;;13.25;6.00;;;;;;;6.60;96.51;101404.53;5027440;28;20029;-74
2021/01/03 05:47:20;;;;;;;15.23;5.65;;;;;;;6.62;96.54;101402.53;5025622;28;20037;-75
2021/01/03 05:50:05;;;;;;;15.00;6.72;;;;;;;6.56;96.82;101394.44;5043195;28;20365;-74
2021/01/03 05:52:33;;;;;;;13.63;6.38;;;;;;;6.58;97.02;101395.13;5028280;28;20057;-75
2021/01/03 05:55:38;;;;;;;21.15;7.35;;;;;;;6.64;96.72;101397.09;5021431;28;20040;-75
2021/01/03 05:58:12;;;;;;;17.40;6.85;;;;;;;6.62;97.01;101401.72;4952881;28;20054;-76
2021/01/03 06:00:40;;;;;;;13.73;6.78;;;;;;;6.59;97.05;101397.56;4967615;28;20046;-76
2021/01/03 06:03:29;;;;;;;19.02;7.05;;;;;;;6.58;97.45;101405.69;4992848;28;20033;-75
2021/01/03 06:06:08;;;;;;;16.27;6.97;;;;;;;6.58;97.67;101413.59;5025322;28;20136;-76
2021/01/03 06:08:37;;;;;;;15.25;6.90;;;;;;;6.51;98.40;101407.31;5035700;28;20032;-75
2021/01/03 06:11:17;;;;;;;17.85;8.30;;;;;;;6.57;98.13;101404.84;5044431;28;20037;-75
2021/01/03 06:13:54;;;;;;;17.50;8.82;;;;;;;6.61;97.67;101411.44;5043015;28;20425;-76
2021/01/03 06:16:23;;;;;;;16.73;9.13;;;;;;;6.63;97.68;101411.31;5025446;28;20441;-75
2021/01/03 06:18:59;;;;;;;12.73;6.28;;;;;;;6.72;97.33;101410.31;5042350;28;20124;-75
2021/01/03 06:21:29;;;;;;;16.75;6.78;;;;;;;6.75;96.88;101412.63;5039895;28;20029;-76
2021/01/03 06:24:18;;;;;;;13.77;6.60;;;;;;;6.83;96.34;101409.97;5038863;28;20047;-76
2021/01/03 06:26:49;;;;;;;18.63;7.68;;;;;;;6.82;96.53;101412.81;5033792;28;20091;-76
2021/01/03 06:29:27;;;;;;;16.05;7.60;;;;;;;6.94;95.42;101415.94;5025434;28;20072;-76
2021/01/03 06:32:05;;;;;;;19.33;9.90;;;;;;;6.98;95.38;101422.53;5019322;28;20020;-77
2021/01/03 06:34:48;;;;;;;22.77;10.40;;;;;;;7.05;95.10;101421.72;5025077;28;20187;-76
2021/01/03 06:37:41;;;;;;;17.60;8.55;;;;;;;7.05;95.23;101418.22;5025320;28;20034;-76
2021/01/03 06:40:15;;;;;;;19.95;9.55;;;;;;;7.15;94.50;101413.63;5034133;28;20057;-74
2021/01/03 06:42:58;;;;;;;18.27;7.72;;;;;;;7.20;94.02;101424.53;5028230;28;20032;-75
2021/01/03 06:45:24;;;;;;;20.60;9.07;;;;;;;7.20;94.85;101427.16;5028023;28;20079;-75
2021/01/03 06:48:14;;;;;;;16.10;6.55;;;;;;;7.25;94.22;101410.81;5032181;28;20033;-75
2021/01/03 06:50:56;;;;;;;18.92;7.90;;;;;;;7.41;93.50;101426.63;5033876;28;20123;-75
2021/01/03 06:53:46;;;;;;;17.48;7.82;;;;;;;7.37;93.76;101422.69;5050839;28;20083;-76
2021/01/03 06:56:33;;;;;;;17.67;9.40;;;;;;;7.41;93.64;101418.69;5029758;28;20033;-75
2021/01/03 06:59:26;;;;;;;34.63;12.40;;;;;;;7.56;93.20;101418.84;5001406;28;20038;-76
2021/01/03 07:01:51;;;;;;;17.13;7.63;;;;;;;7.51;93.29;101419.34;5015934;28;20029;-75
2021/01/03 07:04:43;;;;;;;19.48;10.32;;;;;;;7.55;93.22;101411.91;5010299;28;20037;-75
2021/01/03 07:07:23;;;;;;;19.93;7.20;;;;;;;7.54;93.58;101411.09;5008986;28;20171;-75
2021/01/03 07:10:19;;;;;;;22.90;10.15;;;;;;;7.50;94.10;101414.22;5008571;28;20510;-74
2021/01/03 07:12:47;;;;;;;21.73;11.73;;;;;;;7.51;94.33;101405.31;5010312;28;20017;-75
2021/01/03 07:15:15;;;;;;;55.75;26.65;;;;;;;7.55;94.09;101396.88;5002989;28;20481;-74
2021/01/03 07:18:29;;;;;;;28.75;11.52;;;;;;;7.67;93.96;101407.91;5007745;28;20033;-75
2021/01/03 07:21:04;;;;;;;17.70;8.07;;;;;;;8.01;92.51;101418.19;5005910;28;20041;-75
2021/01/03 07:23:34;;;;;;;12.57;6.28;;;;;;;7.81;94.41;101419.59;5018939;28;20455;-75
2021/01/03 07:26:17;;;;;;;13.63;4.45;;;;;;;8.71;88.62;101427.94;5011490;28;20053;-74
2021/01/03 07:28:49;;;;;;;10.38;3.83;;;;;;;8.79;88.03;101424.41;5016053;28;20156;-75
2021/01/03 07:31:41;;;;;;;18.92;7.20;;;;;;;8.84;88.06;101426.53;5019712;28;20022;-76
2021/01/03 07:34:20;;;;;;;17.58;6.97;;;;;;;8.98;86.68;101423.09;5030710;28;20049;-75
2021/01/03 07:36:57;;;;;;;15.80;5.78;;;;;;;9.00;86.84;101429.03;5022435;28;20033;-75
2021/01/03 07:39:29;;;;;;;16.73;7.00;;;;;;;8.95;88.18;101421.63;5013097;28;20113;-74
2021/01/03 07:42:15;;;;;;;14.00;6.30;;;;;;;9.31;84.42;101418.34;5020462;28;20033;-76
2021/01/03 07:44:41;;;;;;;20.42;7.03;;;;;;;9.29;85.63;101416.84;5011044;28;20026;-73
2021/01/03 07:47:07;;;;;;;11.68;6.47;;;;;;;9.33;84.74;101418.97;5026464;28;20532;-76
2021/01/03 07:49:44;;;;;;;23.17;9.60;;;;;;;8.39;95.25;101417.56;5010255;28;20533;-76
2021/01/03 07:52:35;;;;;;;30.08;11.18;;;;;;;7.97;99.77;101419.53;5022384;28;20010;-76
2021/01/03 07:55:03;;;;;;;27.13;11.00;;;;;;;7.83;100.00;101417.59;5006598;28;20025;-77
2021/01/03 07:57:28;;;;;;;26.80;9.20;;;;;;;7.76;100.00;101417.47;5026709;28;20477;-77
2021/01/03 07:59:55;;;;;;;28.65;11.10;;;;;;;8.50;94.90;101419.78;5029724;28;20035;-79
2021/01/03 08:02:30;;;;;;;21.08;10.55;;;;;;;7.83;100.00;101422.06;5046128;28;20035;-77
2021/01/03 08:04:59;;;;;;;26.15;9.93;;;;;;;7.73;100.00;101416.97;5027678;28;20379;-77
2021/01/03 08:07:25;;;;;;;31.27;14.95;;;;;;;7.72;100.00;101404.75;5028166;28;20021;-77
2021/01/03 08:09:51;;;;;;;36.78;16.15;;;;;;;7.75;100.00;101407.88;5025891;28;20021;-77
2021/01/03 08:12:36;;;;;;;31.05;13.55;;;;;;;7.74;100.00;101403.56;5041499;28;20021;-77
2021/01/03 08:15:24;;;;;;;34.90;17.25;;;;;;;7.78;100.00;101404.09;5024795;28;20025;-77
2021/01/03 08:17:50;;;;;;;32.20;17.35;;;;;;;7.80;100.00;101397.59;5024480;28;20028;-78
2021/01/03 08:20:19;;;;;;;48.58;27.02;;;;;;;7.82;100.00;101396.63;5039090;28;20401;-76
2021/01/03 08:22:44;;;;;;;33.35;16.17;;;;;;;7.87;100.00;101394.31;5042471;28;20104;-78
2021/01/03 08:25:17;;;;;;;33.40;17.45;;;;;;;7.85;100.00;101391.81;5026129;28;20163;-76
2021/01/03 08:27:52;;;;;;;29.90;14.73;;;;;;;7.90;100.00;101389.50;5011284;28;20966;-77
2021/01/03 08:30:24;;;;;;;31.70;14.88;;;;;;;7.92;100.00;101378.72;5031408;28;20017;-76
2021/01/03 08:32:51;;;;;;;20.27;10.90;;;;;;;7.93;100.00;101373.28;5028248;28;20027;-77
2021/01/03 08:35:29;;;;;;;24.63;12.77;;;;;;;8.00;100.00;101376.88;4990733;28;20045;-76
2021/01/03 08:37:55;;;;;;;25.98;12.38;;;;;;;8.03;100.00;101373.06;5044720;28;20037;-79
2021/01/03 08:40:32;;;;;;;35.08;13.00;;;;;;;8.07;100.00;101373.53;5025563;28;20040;-77
2021/01/03 08:43:09;;;;;;;38.38;15.82;;;;;;;8.08;100.00;101367.22;5019781;28;20455;-76
2021/01/03 08:45:38;;;;;;;23.00;11.65;;;;;;;8.02;100.00;101361.66;5025189;28;20086;-79
2021/01/03 08:48:06;;;;;;;25.70;12.55;;;;;;;8.01;100.00;101357.34;5044575;28;20035;-78
2021/01/03 08:50:35;;;;;;;22.00;9.95;;;;;;;8.07;100.00;101355.81;5023346;28;20048;-78
2021/01/03 08:53:06;;;;;;;22.25;11.25;;;;;;;8.03;100.00;101352.72;5022936;28;20358;-79
2021/01/03 08:55:38;;;;;;;29.88;11.20;;;;;;;7.99;100.00;101348.78;5037069;28;20033;-78
2021/01/03 08:58:11;;;;;;;23.23;10.03;;;;;;;7.99;100.00;101348.78;5040364;28;20053;-78
2021/01/03 09:00:42;;;;;;;30.83;11.23;;;;;;;8.06;100.00;101340.16;5019453;28;20366;-78
2021/01/03 09:03:19;;;;;;;26.27;12.98;;;;;;;8.31;100.00;101346.91;5027003;28;20032;-77
2021/01/03 09:05:50;;;;;;;24.38;12.55;;;;;;;8.33;100.00;101331.69;5028322;28;20118;-80
2021/01/03 09:08:32;;;;;;;27.05;14.18;;;;;;;8.26;100.00;101333.41;5040101;28;20040;-78
2021/01/03 09:11:22;;;;;;;29.40;10.90;;;;;;;8.33;100.00;101342.28;5040195;28;20099;-78
2021/01/03 09:13:56;;;;;;;16.25;7.97;;;;;;;8.51;100.00;101336.72;5016712;28;20037;-78
2021/01/03 09:16:32;;;;;;;31.35;11.20;;;;;;;8.58;100.00;101331.53;5029891;28;20033;-76
2021/01/03 09:19:14;;;;;;;26.13;12.65;;;;;;;8.69;99.40;101339.09;5045983;28;20044;-78
2021/01/03 09:21:54;;;;;;;25.85;9.38;;;;;;;8.76;99.06;101331.25;5044070;28;20088;-79
2021/01/03 09:24:30;;;;;;;36.05;15.07;;;;;;;8.69;100.00;101328.47;5030131;28;20064;-78
2021/01/03 09:26:59;;;;;;;26.10;10.60;;;;;;;8.75;99.93;101329.59;5035760;28;20482;-77
2021/01/03 09:29:41;;;;;;;33.42;13.68;;;;;;;8.82;99.28;101325.22;5046681;28;20030;-78
2021/01/03 09:32:35;;;;;;;40.88;15.23;;;;;;;8.88;99.42;101321.84;5029648;28;20025;-78
2021/01/03 09:35:35;;;;;;;31.88;12.35;;;;;;;9.04;97.05;101328.81;5015264;28;20036;-78
2021/01/03 09:38:39;;;;;;;28.13;15.23;;;;;;;9.08;97.46;101322.16;5032839;28;20036;-79
2021/01/03 09:41:24;;;;;;;24.40;11.40;;;;;;;9.10;97.34;101313.00;5006183;28;20049;-77
2021/01/03 09:44:13;;;;;;;34.33;14.68;;;;;;;9.16;97.42;101317.59;5028480;28;20043;-77
2021/01/03 09:47:11;;;;;;;30.05;14.50;;;;;;;9.17;97.94;101307.84;5027168;28;20040;-77
2021/01/03 09:49:37;;;;;;;26.83;12.90;;;;;;;9.18;97.63;101312.13;5047243;28;20097;-76
2021/01/03 09:52:28;;;;;;;25.35;12.45;;;;;;;9.30;96.47;101308.00;5042464;28;20029;-77
2021/01/03 09:54:59;;;;;;;23.23;10.98;;;;;;;9.29;97.38;101301.06;5042917;28;20060;-77
2021/01/03 09:57:33;;;;;;;28.35;10.73;;;;;;;9.36;96.50;101295.84;5030131;28;20049;-77
2021/01/03 09:59:59;;;;;;;41.97;14.75;;;;;;;9.42;96.31;101287.16;5031107;28;20029;-77
2021/01/03 10:02:26;;;;;;;45.33;15.90;;;;;;;9.52;95.48;101289.53;5034036;28;20177;-77
2021/01/03 10:04:52;;;;;;;41.33;14.45;;;;;;;9.60;95.86;101289.44;5029576;28;20454;-77
2021/01/03 10:07:24;;;;;;;36.38;15.05;;;;;;;9.72;95.63;101287.13;5023536;28;20044;-77
2021/01/03 10:10:08;;;;;;;25.10;9.13;;;;;;;9.90;92.71;101276.09;5048229;28;20273;-77
2021/01/03 10:12:36;;;;;;;37.25;18.15;;;;;;;9.94;93.13;101282.66;5049293;28;20139;-78
2021/01/03 10:15:09;;;;;;;21.40;9.65;;;;;;;10.01;92.81;101275.59;5051858;28;20390;-76
2021/01/03 10:17:36;;;;;;;33.70;16.15;;;;;;;10.09;91.79;101272.81;5051094;28;20433;-78
2021/01/03 10:20:16;;;;;;;24.08;10.45;;;;;;;10.16;92.02;101270.22;5032041;28;20039;-78
2021/01/03 10:22:44;;;;;;;36.83;16.48;;;;;;;10.23;91.29;101266.63;5033577;28;20037;-78
2021/01/03 10:25:13;;;;;;;37.10;15.40;;;;;;;10.31;91.37;101265.69;5048762;28;20481;-79
2021/01/03 10:27:39;;;;;;;46.38;22.45;;;;;;;10.40;90.94;101259.25;5032844;28;20025;-79
2021/01/03 10:30:09;;;;;;;27.85;13.35;;;;;;;10.55;90.33;101253.84;5033047;28;20036;-78
2021/01/03 10:32:36;;;;;;;22.70;10.32;;;;;;;10.64;89.81;101244.72;5032167;28;20082;-78
2021/01/03 10:35:06;;;;;;;36.38;17.00;;;;;;;10.73;90.13;101248.88;5032268;28;20111;-76
2021/01/03 10:37:31;;;;;;;29.83;17.20;;;;;;;10.78;89.50;101251.78;5032184;28;20090;-78
2021/01/03 10:39:57;;;;;;;20.10;12.20;;;;;;;10.95;88.79;101238.19;5050204;28;20032;-78
2021/01/03 10:42:22;;;;;;;20.75;9.80;;;;;;;11.05;87.74;101240.50;5033704;28;20401;-78
2021/01/03 10:44:48;;;;;;;21.55;12.10;;;;;;;11.14;87.10;101236.66;5051117;28;20052;-78
2021/01/03 10:47:13;;;;;;;20.73;12.93;;;;;;;11.10;86.69;101238.88;5033480;28;20647;-78
2021/01/03 10:49:38;;;;;;;22.30;11.43;;;;;;;11.16;87.39;101231.97;5032200;28;20025;-78
2021/01/03 10:52:05;;;;;;;23.20;10.88;;;;;;;11.13;87.72;101235.81;5033326;28;20434;-78
2021/01/03 10:54:30;;;;;;;21.17;9.43;;;;;;;11.17;86.90;101238.94;5033227;28;20130;-78
2021/01/03 10:56:57;;;;;;;29.90;15.88;;;;;;;11.21;86.67;101225.03;5043209;28;20486;-78
2021/01/03 10:59:24;;;;;;;25.52;11.43;;;;;;;11.26;86.70;101242.25;5046090;28;20033;-78
2021/01/03 11:01:50;;;;;;;28.38;11.00;;;;;;;11.31;86.45;101221.19;5030673;28;20025;-78
2021/01/03 11:04:22;;;;;;;25.52;11.05;;;;;;;11.51;85.69;101229.25;5031419;28;20075;-78
2021/01/03 11:06:53;;;;;;;22.95;11.43;;;;;;;11.70;83.65;101229.28;5031023;28;20029;-78
2021/01/03 11:09:24;;;;;;;13.27;7.32;;;;;;;11.65;83.63;101229.09;5028627;28;20051;-78
2021/01/03 11:11:50;;;;;;;20.17;8.30;;;;;;;11.74;84.76;101220.91;5033464;28;20398;-78
2021/01/03 11:14:16;;;;;;;20.85;9.73;;;;;;;11.93;83.71;101225.50;5049487;28;20428;-78
2021/01/03 11:16:44;;;;;;;18.42;8.65;;;;;;;11.93;82.88;101230.00;5028383;28;20066;-78
2021/01/03 11:19:15;;;;;;;21.08;8.95;;;;;;;11.95;82.87;101220.78;5050333;28;20432;-78
2021/01/03 11:21:41;;;;;;;19.08;8.07;;;;;;;12.41;80.80;101222.69;5032414;28;20032;-78
2021/01/03 11:24:08;;;;;;;22.38;9.15;;;;;;;12.36;80.86;101217.94;5032678;28;20035;-78
2021/01/03 11:26:37;;;;;;;28.92;13.88;;;;;;;12.64;81.17;101218.75;5051294;28;20029;-78
2021/01/03 11:29:04;;;;;;;24.75;10.40;;;;;;;12.76;80.66;101219.75;5033040;28;20496;-78
2021/01/03 11:31:40;;;;;;;17.40;6.65;;;;;;;13.94;74.91;101217.63;5032886;28;20482;-78
2021/01/03 11:34:07;;;;;;;20.55;8.35;;;;;;;14.57;73.26;101234.66;5047422;28;20082;-78
2021/01/03 11:36:33;;;;;;;18.85;7.95;;;;;;;15.03;69.75;101231.50;5048559;28;20112;-78
2021/01/03 11:39:00;;;;;;;15.57;6.82;;;;;;;15.30;68.27;101236.53;5044476;28;20514;-77